Lubbock, TX

10:33 AM CDT on August 30, 2014 (GMT -0500)
WT_Meso Lubbock 3W | Change Station
CLOSE
Current Station
Personal Weather Station
Location: Lubbock, TX
Elevation: 3231 ft
Nearby Weather Stations

Elev 3231 ft 33.60 °N, 101.90 °W | Updated 38 minutes ago

Scattered Clouds
Scattered Clouds
76 °F
Feels Like 78 °F
N
3
Wind Variable Wind from SW
Gusts 6.0 mph

Today
High -- | Low -- °F
--% Chance of Precip.
Yesterday
High -- | Low -- °F
Precip. -- in
7:20 AM 8:15 PM
Waxing Crescent, 22% visible
Pressure 29.94 in
Visibility 10.0 miles
Clouds Few 26000 ft
Scattered Clouds 30000 ft
Heat Index 78 °F
Dew Point 64 °F
Humidity 70%
Rainfall -999.00 in
Snow Depth Not available.
UV 3 out of 12
Pollen 9.60 out of 12
Air Quality Not available.
Flu Activity Not available.
METAR KLBB 301453Z 25005KT 10SM FEW260 SCT300 26/18 A3009 RMK AO2 SLP137 T02560178 51006

More Conditions Fewer Conditions

Pressure 29.94 in
Visibility 10.0 miles
Clouds Few 26000 ft
Scattered Clouds 30000 ft
Heat Index 78 °F
Dew Point 64 °F
Humidity 70%
Rainfall -999.00 in
Snow Depth Not available.
UV 3 out of 12
Pollen 9.60 out of 12
Air Quality Not available.
Flu Activity Not available.
METAR KLBB 301453Z 25005KT 10SM FEW260 SCT300 26/18 A3009 RMK AO2 SLP137 T02560178 51006

More Conditions Fewer Conditions

Nowcast | as of 8:40 am CDT on August 30, 2014

This morning...areas of localized patchy fog persists across portions of the South Plains...rolling plains and southern Texas Panhandle. Visibilities below 6 miles are possible. Make sure to slow down and use low-beam headlights when encountering any fog.

×

10-Day Weather Forecast

Almanac

Astronomy

Aug. 30, 2014 Rise Set
Actual Time 7:20 AM CDT 8:15 PM CDT
Civil Twilight 6:54 AM CDT 8:40 PM CDT
Nautical Twilight 6:24 AM CDT 9:10 PM CDT
Astronomical Twilight 5:53 AM CDT 9:41 PM CDT
Moon 11:54 AM CDT 11:07 PM CDT
Length of Visible Light 13h 46m
Length of Day
12h 55m
Tomorrow will be 1m 59s shorter.
Waxing Crescent, 22% of the Moon is Illuminated
Today
Waxing Crescent
Sep 2
First Quarter
Sep 8
Full
Sep 15
Last Quarter
Sep 24
New

Today's Extremes

State Highs State Lows

Community

WunderPhotos

Upload Photos

1,748,551 photos uploaded!

WunderBlogs® & News

Nearby

Air Quality

  Air Quality AQ Index Pollutant
Saturday Good
PM10
Saturday Good
OZONE
Sunday Good
PM10
Sunday Good
OZONE
Monday Good
PM10
Monday Good
OZONE
Tuesday Good
PM10
Tuesday Good
OZONE

Snow Depth

Station Depth Elevation
No new snow has been reported.

Earthquake Activity

City Distance Mag. Time & Date
No recent earthquake activity has been reported nearby.
Minimum magnitude displayed is 2.5.

Coastal Water Temperatures

Place Temperature
No Stations Reporting

Nearby Weather Stations